Weather reports worldwide

Advertisment
Vieste, Italy (16266): temperature & dewpoint: 23.05.2020 16:00:00 - 29.05.2020 16:00:00 (CEST)Vieste, Italy (16266): wind speed: 23.05.2020 16:00:00 - 29.05.2020 16:00:00 (CEST)Vieste, Italy (16266): wind direction: 23.05.2020 16:00:00 - 29.05.2020 16:00:00 (CEST)Vieste, Italy (16266): reduced air pressure: 23.05.2020 16:00:00 - 29.05.2020 16:00:00 (CEST)Vieste, Italy (16266): precipitation: 23.05.2020 16:00:00 - 29.05.2020 16:00:00 (CEST)
Date & Time tt [°C] td [°C] ff [km/h] ff [kn] dd ppp [hPa] rr [mm]
29.05.2020 16:00:00 - - - - - - -
29.05.2020 15:00:00 21,6 12,4 15 8 NE 1018,1 -
29.05.2020 14:00:00 21,7 11,1 11 6 NE 1018,6 0,0
29.05.2020 13:00:00 21,9 11,8 11 6 ENE 1019,0 -
29.05.2020 12:00:00 21,5 13,6 13 7 NE 1019,3 -
29.05.2020 11:00:00 20,8 15,0 18 10 NNE 1019,4 -
29.05.2020 10:00:00 20,5 15,0 21 11 NNE 1019,1 -
29.05.2020 09:00:00 20,4 13,7 16 9 N 1018,9 -
29.05.2020 08:00:00 19,9 13,5 8 4 NNW 1018,6 0,0
29.05.2020 07:00:00 18,0 13,4 9 5 WNW 1018,5 -
29.05.2020 06:00:00 16,8 11,5 8 4 WNW 1018,4 -
29.05.2020 05:00:00 17,2 11,4 11 6 NNW 1018,3 -
29.05.2020 04:00:00 17,5 11,0 11 6 NNW 1018,2 -
29.05.2020 03:00:00 17,8 11,1 13 7 W 1018,4 -
29.05.2020 02:00:00 18,0 10,3 9 5 NNW 1018,8 0,0
29.05.2020 01:00:00 18,4 9,9 11 6 NNW 1019,0 -
29.05.2020 00:00:00 17,8 9,4 9 5 W 1019,5 -
28.05.2020 23:00:00 17,9 10,0 9 5 NW 1019,8 -
28.05.2020 22:00:00 17,8 10,8 9 5 NW 1020,0 -
28.05.2020 21:00:00 18,4 11,4 9 5 N 1019,8 -
28.05.2020 20:00:00 19,5 11,2 16 9 N 1019,8 0,0
28.05.2020 19:00:00 19,6 10,8 21 11 NNW 1019,8 -
28.05.2020 18:00:00 21,0 10,7 24 13 N 1020,1 -
28.05.2020 17:00:00 21,2 8,7 21 11 NNE 1020,7 -
28.05.2020 16:00:00 21,7 10,5 24 13 N 1021,3 -
28.05.2020 15:00:00 22,1 8,9 26 14 N 1021,6 -
28.05.2020 14:00:00 21,8 12,3 24 13 N 1022,0 0,0
28.05.2020 13:00:00 21,4 10,8 26 14 N 1022,8 -
28.05.2020 12:00:00 21,5 10,3 18 10 NNE 1023,2 -
28.05.2020 11:00:00 20,5 11,6 24 13 NNE 1023,3 -
28.05.2020 10:00:00 20,2 12,1 24 13 N 1023,2 -
28.05.2020 09:00:00 19,7 11,4 21 11 N 1023,5 -
28.05.2020 08:00:00 19,1 12,8 18 10 NW 1023,7 0,0
28.05.2020 07:00:00 17,9 13,3 15 8 N 1023,9 -
28.05.2020 06:00:00 16,5 13,1 9 5 N 1023,7 -
28.05.2020 05:00:00 16,8 13,1 8 4 WNW 1023,6 -
28.05.2020 04:00:00 16,5 13,3 9 5 NNW 1023,9 -
28.05.2020 03:00:00 16,7 13,3 9 5 NNW 1024,3 -
28.05.2020 02:00:00 16,8 13,1 9 5 WNW 1024,8 0,0
28.05.2020 01:00:00 17,1 13,0 9 5 NNW 1025,3 -
28.05.2020 00:00:00 17,6 12,7 11 6 NW 1025,7 -
27.05.2020 23:00:00 18,2 12,4 21 11 NNE 1025,8 -
27.05.2020 22:00:00 18,1 12,7 18 10 N 1025,7 -
27.05.2020 21:00:00 18,9 12,8 29 16 N 1025,1 -
27.05.2020 20:00:00 18,7 12,4 15 8 NNW 1024,8 0,0
27.05.2020 19:00:00 19,1 12,3 21 11 N 1025,1 -
27.05.2020 18:00:00 19,9 11,6 21 11 NW 1025,1 -
27.05.2020 17:00:00 20,4 9,3 24 13 N 1025,3 -
27.05.2020 16:00:00 20,2 11,4 26 14 N 1025,6 -
27.05.2020 15:00:00 20,4 12,3 28 15 NNE 1025,6 -
27.05.2020 14:00:00 20,5 12,9 24 13 NNE 1025,7 0,0
27.05.2020 13:00:00 20,1 11,8 26 14 N 1025,9 -
27.05.2020 12:00:00 19,8 12,3 24 13 N 1025,8 -
27.05.2020 11:00:00 19,5 12,2 24 13 NNE 1025,8 -
27.05.2020 10:00:00 19,7 12,7 31 17 NNE 1025,4 -
27.05.2020 09:00:00 18,7 11,9 37 20 NNE 1025,4 -
27.05.2020 08:00:00 18,2 12,6 29 16 NE 1025,1 0,0
27.05.2020 07:00:00 17,7 11,4 24 13 NNE 1024,8 -
27.05.2020 06:00:00 16,9 10,5 15 8 N 1024,3 -
27.05.2020 05:00:00 17,0 11,2 22 12 NNE 1024,1 -
27.05.2020 04:00:00 16,9 10,9 18 10 N 1024,1 -
27.05.2020 03:00:00 17,5 10,8 29 16 NNE 1024,0 -
27.05.2020 02:00:00 18,0 12,0 34 18 NE 1024,3 0,0
27.05.2020 01:00:00 18,0 12,6 18 10 ENE 1024,3 -
27.05.2020 00:00:00 18,5 12,7 21 11 NE 1024,2 -
26.05.2020 23:00:00 18,6 13,4 22 12 N 1024,3 -
26.05.2020 22:00:00 18,4 12,3 24 13 N 1024,2 -
26.05.2020 21:00:00 18,1 12,1 18 10 N 1023,7 -
26.05.2020 20:00:00 18,3 10,8 24 13 NNW 1023,9 0,0
26.05.2020 19:00:00 19,0 10,5 28 15 N 1023,6 -
26.05.2020 18:00:00 19,4 10,9 31 17 ENE 1023,5 -
26.05.2020 17:00:00 19,9 10,3 35 19 NNE 1023,6 -
26.05.2020 16:00:00 20,0 10,6 35 19 N 1023,9 -
26.05.2020 15:00:00 19,9 10,5 35 19 NNE 1024,0 -
26.05.2020 14:00:00 19,9 10,5 39 21 NNE 1024,2 0,0
26.05.2020 13:00:00 19,6 10,3 39 21 N 1024,4 -
26.05.2020 12:00:00 19,4 11,4 42 23 NNE 1024,4 -
26.05.2020 11:00:00 19,4 11,9 37 20 N 1024,2 -
26.05.2020 10:00:00 19,1 12,1 34 18 NNE 1024,2 -
26.05.2020 09:00:00 19,0 11,5 37 20 NNE 1024,3 -
26.05.2020 08:00:00 18,3 11,3 35 19 NNE 1023,8 0,0
26.05.2020 07:00:00 18,3 12,7 29 16 N 1023,3 -
26.05.2020 06:00:00 18,0 12,2 26 14 N 1023,1 -
26.05.2020 05:00:00 18,5 10,0 18 10 N 1023,0 -
26.05.2020 04:00:00 18,2 10,3 22 12 N 1023,3 -
26.05.2020 03:00:00 16,6 10,4 8 4 NNW 1023,1 -
26.05.2020 02:00:00 17,0 10,6 8 4 NNW 1023,1 0,0
26.05.2020 01:00:00 17,5 10,1 9 5 WNW 1023,2 -
26.05.2020 00:00:00 18,4 10,9 9 5 WNW 1023,6 -
25.05.2020 23:00:00 18,1 6,8 9 5 NNW 1023,6 -
25.05.2020 22:00:00 18,0 4,8 8 4 NNW 1023,3 -
25.05.2020 21:00:00 18,8 4,8 5 3 NW 1023,0 -
25.05.2020 20:00:00 20,5 6,7 9 5 NNW 1023,0 0,0
25.05.2020 19:00:00 21,3 8,5 13 7 NNW 1023,1 -
25.05.2020 18:00:00 21,8 7,5 16 9 N 1023,2 -
25.05.2020 17:00:00 22,3 7,6 18 10 NE 1023,7 -
25.05.2020 16:00:00 22,0 11,4 22 12 NE 1024,1 -
25.05.2020 15:00:00 22,3 11,0 18 10 N 1024,5 -
25.05.2020 14:00:00 22,0 11,4 26 14 NNE 1024,7 0,0
25.05.2020 13:00:00 22,2 10,6 21 11 NNE 1024,9 -
25.05.2020 12:00:00 21,8 9,6 8 4 ENE 1025,3 -
25.05.2020 11:00:00 21,6 9,8 8 4 NE 1025,8 -
25.05.2020 10:00:00 20,9 11,7 9 5 NNE 1025,9 -
25.05.2020 09:00:00 20,4 11,3 8 4 NNE 1025,6 -
25.05.2020 08:00:00 19,5 14,7 8 4 NNE 1025,3 0,0
25.05.2020 07:00:00 17,8 15,7 4 2 NNW 1025,1 -
25.05.2020 06:00:00 16,7 15,0 4 2 WNW 1024,6 -
25.05.2020 05:00:00 17,0 15,1 4 2 NNW 1024,5 -
25.05.2020 04:00:00 17,5 15,4 5 3 NNW 1024,4 -
25.05.2020 03:00:00 17,6 15,2 5 3 NNW 1024,6 -
25.05.2020 02:00:00 17,9 15,1 5 3 NNW 1024,6 0,0
25.05.2020 01:00:00 18,2 15,8 9 5 NNW 1024,9 -
25.05.2020 00:00:00 18,7 16,6 9 5 NW 1025,0 -
24.05.2020 23:00:00 18,7 16,4 8 4 NNW 1024,9 -
24.05.2020 22:00:00 19,1 16,6 9 5 NNW 1024,6 -
24.05.2020 21:00:00 20,0 17,1 13 7 N 1023,6 -
24.05.2020 20:00:00 20,1 16,9 16 9 NNE 1023,7 0,0
24.05.2020 19:00:00 20,7 17,4 18 10 NNE 1023,3 -
24.05.2020 18:00:00 21,5 18,0 21 11 NE 1023,2 -
24.05.2020 17:00:00 22,5 16,9 16 9 NNE 1023,2 -
24.05.2020 16:00:00 22,8 19,5 21 11 NE 1023,1 -
24.05.2020 15:00:00 22,0 19,5 24 13 NNE 1023,1 -
24.05.2020 14:00:00 23,6 19,9 26 14 NNE 1023,1 0,0
24.05.2020 13:00:00 23,4 18,2 18 10 N 1022,4 -
24.05.2020 12:00:00 23,1 18,4 29 16 NNE 1022,4 -
24.05.2020 11:00:00 22,6 19,3 28 15 NE 1021,9 -
24.05.2020 10:00:00 22,0 18,9 13 7 NNE 1021,6 -
24.05.2020 09:00:00 22,6 19,5 8 4 NE 1021,0 -
24.05.2020 08:00:00 22,7 16,4 4 2 NE 1020,9 0,0
24.05.2020 07:00:00 19,7 15,9 2 1 WSW 1020,3 -
24.05.2020 06:00:00 18,3 13,9 2 1 W 1020,3 -
24.05.2020 05:00:00 18,6 13,6 2 1 N 1020,0 -
24.05.2020 04:00:00 18,8 13,6 2 1 WNW 1020,3 -
24.05.2020 03:00:00 19,2 13,5 2 1 WNW 1020,7 -
24.05.2020 02:00:00 19,7 13,3 2 1 SW 1021,0 0,0
24.05.2020 01:00:00 20,9 13,7 4 2 W 1021,5 -
24.05.2020 00:00:00 20,3 13,2 0 0 N 1021,6 -
23.05.2020 23:00:00 20,0 13,1 0 0 N 1021,7 -
23.05.2020 22:00:00 20,3 12,9 2 1 SW 1021,7 -
23.05.2020 21:00:00 21,0 10,4 0 0 N 1021,5 -
23.05.2020 20:00:00 23,2 12,5 9 5 SSW 1021,6 0,0
23.05.2020 19:00:00 23,3 12,6 5 3 SSW 1021,9 -
23.05.2020 18:00:00 23,6 13,9 8 4 S 1022,4 -
23.05.2020 17:00:00 25,0 12,8 9 5 S 1022,7 -
23.05.2020 16:00:00 25,3 13,1 8 4 S 1023,6 -

tt = temperature
td = dewpoint
ff = wind speed
dd = wind direction
ppp = reduced air pressure
rr = precipitation

Next stations